Station: Murganella Airstrip

  Atmospheric Gas Attenuation - ITU Rec 676-11   --------------- db/100km ---------------
Date Time Temp RH % AH g/m3 Dew Point Wind Direction Speed kph Gust kph Barometer mB Rainfall Since 9am 24GHz 47GHz 76GHz 122GHz 134GHz 241GHz
11 21:20 26.2 96 23.63 25.5 0 0 1013.1 0 50.7 48.6 98.8 261.6 295.6 1026.9
11 21:10 26.2 95 23.39 25.3 2 2 1013.1 0 50.2 48.1 97.6 258.3 291.5 1012.8
11 21:00 26.3 95 23.52 25.4 0 4 1010.3 0 50.5 48.2 97.9 259.2 292.8 1017.2
11 20:50 26.4 95 23.65 25.5 0 0 1013.1 0 50.7 48.5 98.6 261.2 295.1 1025.3
11 20:40 26.4 94 23.4 25.3 0 0 1013.1 0 50.2 48.0 97.3 257.8 290.9 1010.6
11 20:30 26.5 94 23.53 25.5 0 0 1009.9 0 50.5 48.1 97.6 258.6 292.1 1014.8
11 20:20 26.6 93 23.41 25.3 0 0 1013.1 0 50.2 47.9 97.1 257.2 290.3 1008.5
11 20:10 26.7 93 23.54 25.4 0 0 1013.1 0 50.4 48.1 97.7 258.6 292.1 1014.7
11 20:00 26.9 92 23.55 25.5 0 0 1009.5 0 50.5 47.9 97.2 257.4 290.8 1010.2
11 19:50 27 91 23.42 25.4 0 0 1013.1 0 50.1 47.7 96.7 256.0 288.9 1003.7
11 19:40 27.2 90 23.42 25.4 0 0 1013.1 0 50.1 47.6 96.4 255.3 288.1 1001.0
11 19:30 27.5 89 23.55 25.5 0 0 1008.9 0 50.4 47.5 96.4 255.2 288.3 1001.7
11 19:20 27.7 88 23.54 25.5 0 0 1013.1 0 50.3 47.5 96.4 255.2 288.1 1001.1
11 19:10 27.9 86 23.26 25.3 0 0 1013.1 0 49.7 46.9 94.7 250.7 282.7 982.5
11 19:00 28.2 84 23.1 25.2 0 0 1008.6 0 49.3 46.2 93.2 246.8 278.1 966.6
11 18:50 28.6 83 23.33 25.4 0 0 1013.1 0 49.7 46.6 94.1 249.3 281.2 977.2
11 18:40 29 77 22.12 24.7 0 0 1013.1 0 47.1 44.0 87.7 232.3 260.4 905.0
11 18:30 29.3 78 22.78 25.1 4 6 1008.5 0 48.5 44.9 90.2 239.0 268.9 934.8
11 18:20 29.7 74 22.08 24.7 4 4 1013.1 0 46.9 43.6 86.7 229.6 257.3 894.5
11 18:10 30 73 22.14 24.6 2 4 1013.1 0 47.0 43.5 86.7 229.5 257.2 894.2
11 18:00 30.3 70 21.58 24.2 4 6 1008.3 0 45.9 42.1 83.4 220.8 246.8 858.1
11 17:50 30.8 66 20.9 23.7 4 6 1013.1 0 44.3 40.8 80.0 211.8 235.7 819.7
11 17:40 31.4 63 20.6 23.5 6 7 1013.1 0 43.6 40.0 78.0 206.5 229.5 797.9
11 17:30 32.4 61 21.04 23.9 6 9 1008 0 44.5 40.1 78.6 208.3 232.0 807.0
11 17:20 32.7 60 21.03 24.1 6 6 1013.1 0 44.4 40.1 78.6 208.1 231.8 806.1
11 17:10 33.1 59 21.12 24 6 9 1013.1 0 44.5 40.1 78.6 208.1 231.9 806.5
11 17:00 33.3 60 21.71 24.7 6 9 1007.7 0 45.8 40.8 80.7 213.7 239.0 831.2
11 16:50 33.4 58 21.1 24.2 6 7 1013.1 0 44.5 39.9 78.2 207.1 230.7 802.3
11 16:40 33.5 59 21.57 24.6 9 11 1013.1 0 45.4 40.7 80.2 212.4 237.1 824.9
11 16:30 33.5 59 21.57 24.4 7 13 1007.6 0 45.5 40.5 79.8 211.5 236.3 821.9
11 16:20 33.6 58 21.32 24.4 7 7 1013.1 0 44.9 40.2 79.0 209.1 233.2 811.3
11 16:10 33.6 58 21.32 24.4 6 9 1013.1 0 44.9 40.2 79.0 209.1 233.2 811.3
11 16:00 33.9 58 21.66 24.5 6 9 1007.4 0 45.6 40.4 79.8 211.4 236.3 822.1
11 15:50 34.2 55 20.86 24.1 4 6 1013.1 0 43.9 39.1 76.4 202.2 224.8 782.2
11 15:40 34.2 59 22.38 25.3 6 9 1013.1 0 47.0 41.8 83.1 220.0 246.7 858.4
11 15:30 33.8 59 21.92 24.7 6 11 1007.4 0 46.2 40.9 81.1 214.8 240.4 836.2
11 15:20 33.8 60 22.29 25.2 6 7 1013.1 0 46.9 41.8 83.1 220.1 246.7 858.3
11 15:10 34 58 21.77 24.8 9 9 1013.1 0 45.8 40.8 80.6 213.3 238.5 829.7
11 15:00 33.3 63 22.79 25.3 6 11 1007.6 0 48.0 42.8 85.6 226.7 254.9 886.6
11 14:50 33.5 60 21.94 24.9 6 11 1013.1 0 46.2 41.4 81.9 216.8 242.5 843.7
11 14:40 33.6 60 22.05 25 9 9 1013.1 0 46.4 41.5 82.2 217.8 243.8 848.2
11 14:30 33.5 58 21.21 24.1 6 11 1007.9 0 44.7 39.8 78.3 207.3 231.1 804.0
11 14:20 33.7 57 21.06 24.2 4 6 1013.1 0 44.3 39.7 77.7 205.8 229.2 797.2
11 14:10 34.8 55 21.53 24.7 6 6 1013.1 0 45.2 40.0 78.7 208.3 232.6 809.1
11 14:00 34.5 54 20.81 24.1 7 9 1008.3 0 43.8 38.7 75.6 200.1 222.5 774.2
11 13:50 34.9 58 22.82 25.4 7 9 1013.1 0 47.8 42.3 84.3 223.3 250.9 872.9
11 13:40 35 55 21.75 24.9 11 13 1013.1 0 45.6 40.3 79.4 210.4 235.1 818.0
11 13:30 35.5 47 19.08 22.8 4 9 1008.8 0 40.1 35.4 67.4 178.5 196.2 682.8
11 13:20 35.3 48 19.28 22.9 4 6 1013.1 0 40.5 35.9 68.7 181.7 200.0 695.9
11 13:10 35.1 49 19.48 23.1 4 4 1013.1 0 40.9 36.4 69.7 184.4 203.2 707.1
11 13:00 34.2 47 17.83 21.6 4 9 1009.2 0 37.6 33.8 63.5 167.9 183.0 636.4
11 12:50 34 47 17.64 21.4 6 6 1013.1 0 37.2 33.8 63.1 166.9 181.4 631.0
11 12:40 34.6 52 20.14 23.3 2 2 1013.1 0 42.3 37.7 72.9 192.9 213.6 743.2
11 12:30 33.6 49 18.01 21.7 4 6 1009.6 0 38.0 34.4 64.7 171.2 186.8 649.7
11 12:20 33.9 52 19.42 22.9 2 2 1013.1 0 40.9 36.8 70.5 186.6 205.6 715.2
11 12:10 34 55 20.65 23.9 4 4 1013.1 0 43.5 38.8 75.6 200.3 222.4 773.9
11 12:00 32.8 56 19.73 22.9 2 4 1010 0 41.7 37.6 72.6 192.3 212.4 738.9
11 11:50 32.7 55 19.28 22.7 4 6 1013.1 0 40.7 37.0 71.0 187.9 206.9 719.5
11 11:40 33.7 54 19.95 23.1 0 0 1013.1 0 42.0 37.8 72.9 193.0 213.5 742.6
11 11:30 34.4 53 20.32 23.7 4 7 1010.5 0 42.7 38.0 73.7 195.1 216.3 752.5
11 11:20 33.9 53 19.79 23.2 4 4 1013.1 0 41.7 37.4 72.1 190.7 210.7 733.0
11 11:10 33.3 53 19.18 22.7 6 7 1013.1 0 40.5 36.6 70.0 185.3 203.9 709.2
11 11:00 33.1 57 20.41 23.7 2 6 1010.9 0 43.1 38.7 75.3 199.5 221.3 769.9
11 10:50 33 56 19.94 23.3 2 4 1013.1 0 42.1 38.0 73.5 194.7 215.3 748.9
11 10:40 33.5 58 21.21 24.3 4 6 1013.1 0 44.7 40.1 78.6 208.1 231.9 806.8
11 10:30 32.3 56 19.22 22.4 4 6 1011.1 0 40.7 37.0 71.0 187.8 206.8 719.3
11 10:20 32.6 57 19.87 23.2 6 6 1013.1 0 42.0 38.1 73.6 194.9 215.4 749.3
11 10:10 32.2 61 20.82 23.7 0 2 1013.1 0 44.0 40.0 78.2 207.0 230.2 800.8
11 10:00 32 62 20.94 23.8 0 4 1011.4 0 44.3 40.2 78.8 208.7 232.3 808.0
11 09:50 31.7 62 20.6 23.5 0 0 1013.1 0 43.6 39.8 77.7 205.7 228.6 794.8
11 09:40 31 63 20.17 23.1 0 0 1013.1 0 42.8 39.4 76.5 202.5 224.4 780.2
11 09:30 30.8 68 21.53 24.2 2 6 1011.4 0 45.7 41.9 82.8 219.2 244.9 851.6
11 09:20 29.8 73 21.9 24.4 6 6 1013.1 0 46.5 43.2 85.7 227.0 254.2 883.6
11 09:10 29.6 75 22.26 24.7 0 0 1013.1 0 47.3 43.9 87.7 232.2 260.5 905.4
11 09:00 28.6 80 22.49 24.8 0 0 1011.5 0 48.0 44.9 89.9 238.0 267.4 929.3
11 08:50 28.1 81 22.15 24.5 0 0 1013.1 0 47.3 44.5 88.9 235.4 264.0 917.6
11 08:40 28.5 81 22.64 24.9 0 0 1013.1 0 48.3 45.3 90.9 240.6 270.4 939.8
11 08:30 27.1 85 22 24.4 0 0 1011.3 0 47.1 44.7 89.3 236.3 264.9 920.4
11 08:20 27.2 90 23.42 25.4 0 0 1013.1 0 50.1 47.6 96.4 255.3 288.1 1001.0
11 08:10 26.7 98 24.81 26.3 0 0 1013.1 0 53.1 50.8 104.3 276.3 313.7 1089.8
11 08:00 26 99 24.1 25.8 0 0 1011 0 51.7 49.6 101.4 268.5 304.0 1056.2
11 07:50 25.5 99 23.44 25.3 0 0 1013.1 0 50.4 48.6 98.7 261.5 295.2 1025.4
11 07:40 24.7 99 22.41 24.5 0 0 1013.1 0 48.3 47.0 94.4 250.0 280.9 975.6
11 07:30 24.2 98 21.56 23.9 0 0 1011.1 0 46.5 45.4 90.5 239.7 268.2 931.3
11 07:20 23.7 98 20.96 23.3 0 0 1013.1 0 45.3 44.6 88.2 233.5 260.3 904.2
11 07:10 23.3 98 20.49 22.9 0 0 1013.1 0 44.3 43.8 86.3 228.4 254.0 882.0
11 07:00 23.2 98 20.37 22.9 0 0 1010.7 0 44.1 43.5 85.7 226.7 252.0 875.0
11 06:50 23.1 98 20.26 22.7 0 0 1013.1 0 43.9 43.5 85.4 226.0 250.9 871.3
11 06:40 23.1 98 20.26 22.7 0 0 1013.1 0 43.9 43.5 85.4 226.0 250.9 871.3
11 06:30 23.1 98 20.26 22.8 0 0 1010.3 0 43.9 43.3 85.2 225.5 250.4 869.7
11 06:20 23.2 98 20.37 22.8 0 0 1013.1 0 44.1 43.6 85.8 227.1 252.4 876.4
11 06:10 23.1 97 20.05 22.6 0 0 1013.1 0 43.4 43.0 84.3 223.2 247.5 859.4
11 06:00 23.1 97 20.05 22.6 0 0 1009.9 0 43.4 42.9 84.1 222.6 246.9 857.5
11 05:50 23.2 97 20.16 22.7 0 0 1013.1 0 43.6 43.2 84.8 224.3 248.9 864.4
11 05:40 23.4 97 20.4 22.9 0 0 1013.1 0 44.1 43.6 85.7 226.9 252.2 875.7
11 04:50 23.7 98 20.96 23.3 0 0 1013.1 0 45.3 44.6 88.2 233.5 260.3 904.2
11 04:40 23.8 97 20.86 23.3 0 0 1013.1 0 45.1 44.3 87.6 231.8 258.3 897.2
11 04:30 23.7 97 20.75 23.2 0 0 1009.4 0 44.9 44.0 86.9 230.0 256.3 889.9
11 04:20 23.8 98 21.08 23.4 0 0 1013.1 0 45.5 44.7 88.7 234.8 262.0 909.8
11 04:10 23.9 98 21.2 23.5 0 0 1013.1 0 45.8 44.9 89.2 236.1 263.6 915.5

Last Refresh: 11-Apr-2021 21:36:59

Bureau of Meteorology